WARNING - Change wsUserSettings.php: $SITE["topfolder"] from : weather28m/ to: ./
Welkom op onze website -
Gegevens meteorieten voor 2019 onder zon aarde ruimte


Webcam zuid Meer informatie Webcam zuid


Webcam noord Meer informatie Webcam noord


waarschuwing voor Onweer Meer informatie blitzortung!


Regen radar Meer informatie rain snow radar


Bezoek onze andere website:

Template documentation
and downloads

Onze andere website


U vindt ons ook hier:

Het Weer Aktueel

UK Metoffice

European Weather Network

WeatherCloud

Weather Underground

Austria Weather Network

AWEKAS

Citizen Weather Observer Program (CWOP)

HAMweather, WeatherForYou, PWS Weather

Wetterpage 24

Roosendaal op internet

VWKWEB

RadioZuidWestFM



Onweer van: 20-07-2019 12:00 tot: 20:00 waarschuwing voor: Onweer niveau: Geel info button
Kans op onweersbuien met hagel en windstoten (60-75 km/hr).Kans op blikseminslag, hagel en windstoten.Verkeer en buitenactiviteiten kunnen hinder ondervinden.Mijd open water en open gebied, schuil niet onder bomen.Volg weerberichten en waarschuwingen.

METAR rapporten vliegvelden

   
EHWO - Bergen op Zoom
Gewijzigd: 20-07-2019 05:25
Bewolking  
Bewolking  
   Wind: Zuiden 5.6 km/h
Wind: Zuiden 5.6 km/h
Temperatuur: 19°C
Dauwpunt: 14°C
Vochtigheid: 73%
Barometer: 1009 hPa
Bewolking: Bewolking
Zicht: meer dan 10 km
Bewolking: Grotendeels bewolkt 6900 ft,
Bewolking 9900 ft
EHWO 200325Z AUTO 17003KT 130V220 9999 BKN069 OVC099 19/14 Q1009 BLU
EHWO - Woensdrecht
Gewijzigd: 20-07-2019 05:25
Bewolking  
Bewolking  
   Wind: Zuiden 5.6 km/h
Wind: Zuiden 5.6 km/h
Temperatuur: 19°C
Dauwpunt: 14°C
Vochtigheid: 73%
Barometer: 1009 hPa
Bewolking: Bewolking
Zicht: meer dan 10 km
Bewolking: Grotendeels bewolkt 6900 ft,
Bewolking 9900 ft
EHWO 200325Z AUTO 17003KT 130V220 9999 BKN069 OVC099 19/14 Q1009 BLU
EHWO - Steenbergen
Gewijzigd: 20-07-2019 05:25
Bewolking  
Bewolking  
   Wind: Zuiden 5.6 km/h
Wind: Zuiden 5.6 km/h
Temperatuur: 19°C
Dauwpunt: 14°C
Vochtigheid: 73%
Barometer: 1009 hPa
Bewolking: Bewolking
Zicht: meer dan 10 km
Bewolking: Grotendeels bewolkt 6900 ft,
Bewolking 9900 ft
EHWO 200325Z AUTO 17003KT 130V220 9999 BKN069 OVC099 19/14 Q1009 BLU
EHWO - Oud-Gastel
Gewijzigd: 20-07-2019 05:25
Bewolking  
Bewolking  
   Wind: Zuiden 5.6 km/h
Wind: Zuiden 5.6 km/h
Temperatuur: 19°C
Dauwpunt: 14°C
Vochtigheid: 73%
Barometer: 1009 hPa
Bewolking: Bewolking
Zicht: meer dan 10 km
Bewolking: Grotendeels bewolkt 6900 ft,
Bewolking 9900 ft
EHWO 200325Z AUTO 17003KT 130V220 9999 BKN069 OVC099 19/14 Q1009 BLU
EHWO - Oudenbosch
Gewijzigd: 20-07-2019 05:25
Bewolking  
Bewolking  
   Wind: Zuiden 5.6 km/h
Wind: Zuiden 5.6 km/h
Temperatuur: 19°C
Dauwpunt: 14°C
Vochtigheid: 73%
Barometer: 1009 hPa
Bewolking: Bewolking
Zicht: meer dan 10 km
Bewolking: Grotendeels bewolkt 6900 ft,
Bewolking 9900 ft
EHWO 200325Z AUTO 17003KT 130V220 9999 BKN069 OVC099 19/14 Q1009 BLU
EHWO - Rucphen
Gewijzigd: 20-07-2019 05:25
Bewolking  
Bewolking  
   Wind: Zuiden 5.6 km/h
Wind: Zuiden 5.6 km/h
Temperatuur: 19°C
Dauwpunt: 14°C
Vochtigheid: 73%
Barometer: 1009 hPa
Bewolking: Bewolking
Zicht: meer dan 10 km
Bewolking: Grotendeels bewolkt 6900 ft,
Bewolking 9900 ft
EHWO 200325Z AUTO 17003KT 130V220 9999 BKN069 OVC099 19/14 Q1009 BLU
EHWO - Bergen op Zoom
Gewijzigd: 20-07-2019 05:25
Bewolking  
Bewolking  
   Wind: Zuiden 5.6 km/h
Wind: Zuiden 5.6 km/h
Temperatuur: 19°C
Dauwpunt: 14°C
Vochtigheid: 73%
Barometer: 1009 hPa
Bewolking: Bewolking
Zicht: meer dan 10 km
Bewolking: Grotendeels bewolkt 6900 ft,
Bewolking 9900 ft
EHWO 200325Z AUTO 17003KT 130V220 9999 BKN069 OVC099 19/14 Q1009 BLU
EHWO - Fijnaart
Gewijzigd: 20-07-2019 05:25
Bewolking  
Bewolking  
   Wind: Zuiden 5.6 km/h
Wind: Zuiden 5.6 km/h
Temperatuur: 19°C
Dauwpunt: 14°C
Vochtigheid: 73%
Barometer: 1009 hPa
Bewolking: Bewolking
Zicht: meer dan 10 km
Bewolking: Grotendeels bewolkt 6900 ft,
Bewolking 9900 ft
EHWO 200325Z AUTO 17003KT 130V220 9999 BKN069 OVC099 19/14 Q1009 BLU
EHWO - Ossendrecht
Gewijzigd: 20-07-2019 05:25
Bewolking  
Bewolking  
   Wind: Zuiden 5.6 km/h
Wind: Zuiden 5.6 km/h
Temperatuur: 19°C
Dauwpunt: 14°C
Vochtigheid: 73%
Barometer: 1009 hPa
Bewolking: Bewolking
Zicht: meer dan 10 km
Bewolking: Grotendeels bewolkt 6900 ft,
Bewolking 9900 ft
EHWO 200325Z AUTO 17003KT 130V220 9999 BKN069 OVC099 19/14 Q1009 BLU

Script ontwikkeld door  Saratoga-weather.org Aangepast voor de template door  Weerstation Leuven

Apparatuur in gebruik:

Weerstation
Davis VP2

Weerprogramma
Meteobridge

Weercomputer
Shuttle

Webleverancier
WeservIT

Davis VP2

Meteobridge

Shuttle

WeservIT